Terminal Aerodrome Forecast
Issued by NWS

Home | Current Version | Previous Version | Text Only | Print | Product List | Glossary On
Versions: 1 2 3 4 5 6 7 8 9 10 11 12 13 14 15 16 17 18 19 20 21 22 23 24 25 26 27
873
FTUS42 KJAX 070520
TAFCRG
TAF
KCRG 070520Z 0706/0806 33013G19KT 5SM -RA BR BKN008 OVC015
      TEMPO 0709/0713 SCT008 OVC015
     FM071300 32013G23KT P6SM VCSH SCT009 OVC016
     FM071700 32014G24KT P6SM SCT015 BKN025
     FM071900 31016G26KT P6SM SCT040
     FM072300 29010KT P6SM SKC=

USA.gov is the U.S. government's official web portal to all federal, state and local government web resources and services.